Time;durP1;ratioP1;P1;durP2;ratioP2;P2;SDS_P1;SDS_P2;PMS_P1;PMS_P2;Temp;Humidity;BMP_temperature;BMP_pressure;BME280_temperature;BME280_humidity;BME280_pressure;Samples;Min_cycle;Max_cycle;Signal;HPM_P1;HPM_P2
2023/10/31 00:01:49;;;;;;;;;;;11.00;99.90;;;;;;5177125;27;19926;-41
2023/10/31 00:04:15;;;;;;;;;;;11.00;99.90;;;;;;5177061;27;19927;-41
2023/10/31 00:06:40;;;;;;;;;;;11.00;99.90;;;;;;5177078;27;19929;-41
2023/10/31 00:09:06;;;;;;;;;;;11.00;99.90;;;;;;5177101;27;19929;-41
2023/10/31 00:11:32;;;;;;;;;;;11.00;99.90;;;;;;5176979;27;19930;-41
2023/10/31 00:13:57;;;;;;;;;;;11.00;99.90;;;;;;5176753;27;19923;-41
2023/10/31 00:16:23;;;;;;;;;;;11.00;99.90;;;;;;5176561;27;19927;-41
2023/10/31 00:18:48;;;;;;;;;;;11.00;99.90;;;;;;5176966;27;19930;-41
2023/10/31 00:21:14;;;;;;;;;;;11.00;99.90;;;;;;5158555;27;19930;-41
2023/10/31 00:23:43;;;;;;;;;;;11.00;99.90;;;;;;5176761;27;19922;-41
2023/10/31 00:26:09;;;;;;;;;;;11.00;99.90;;;;;;5176773;27;19930;-41
2023/10/31 00:28:35;;;;;;;;;;;11.00;99.90;;;;;;5176930;27;19923;-41
2023/10/31 00:31:00;;;;;;;;;;;11.00;99.90;;;;;;5176463;27;19968;-41
2023/10/31 00:33:27;;;;;;;;;;;11.00;99.90;;;;;;5175679;27;19923;-41
2023/10/31 00:35:52;;;;;;;;;;;11.00;99.90;;;;;;5176602;27;19968;-42
2023/10/31 00:38:18;;;;;;;;;;;10.90;99.90;;;;;;5176742;27;20009;-41
2023/10/31 00:40:43;;;;;;;;;;;10.90;99.90;;;;;;5176486;27;19926;-41
2023/10/31 00:43:09;;;;;;;;;;;10.90;99.90;;;;;;5176599;27;19961;-41
2023/10/31 00:45:34;;;;;;;;;;;11.00;99.90;;;;;;5176335;27;19952;-41
2023/10/31 00:48:00;;;;;;;;;;;10.90;99.90;;;;;;5158036;27;19930;-41
2023/10/31 00:50:25;;;;;;;;;;;10.90;99.90;;;;;;5176559;27;19923;-42
2023/10/31 00:52:51;;;;;;;;;;;10.90;99.90;;;;;;5176505;27;19923;-41
2023/10/31 00:55:16;;;;;;;;;;;10.90;99.90;;;;;;5176183;27;20017;-41
2023/10/31 00:57:42;;;;;;;;;;;10.90;99.90;;;;;;5158062;27;19930;-41
2023/10/31 01:00:09;;;;;;;;;;;10.90;99.90;;;;;;5158004;27;20389;-42
2023/10/31 01:02:35;;;;;;;;;;;10.90;99.90;;;;;;5176200;27;19933;-42
2023/10/31 01:05:00;;;;;;;;;;;10.80;99.90;;;;;;5176219;27;19974;-41
2023/10/31 01:07:26;;;;;;;;;;;10.90;99.90;;;;;;5176417;27;19923;-41
2023/10/31 01:09:52;;;;;;;;;;;10.90;99.90;;;;;;5176606;27;19923;-42
2023/10/31 01:12:17;;;;;;;;;;;10.80;99.90;;;;;;5176334;27;20365;-42
2023/10/31 01:14:43;;;;;;;;;;;10.90;99.90;;;;;;5157624;27;20238;-42
2023/10/31 01:17:08;;;;;;;;;;;10.90;99.90;;;;;;5176201;27;19982;-42
2023/10/31 01:19:34;;;;;;;;;;;11.00;99.90;;;;;;5176252;27;19958;-42
2023/10/31 01:21:59;;;;;;;;;;;11.00;99.90;;;;;;5176527;27;19923;-42
2023/10/31 01:24:25;;;;;;;;;;;11.00;99.90;;;;;;5157807;27;19923;-41
2023/10/31 01:26:50;;;;;;;;;;;11.00;99.90;;;;;;5157498;27;20373;-42
2023/10/31 01:29:16;;;;;;;;;;;10.90;99.90;;;;;;5176151;27;20373;-42
2023/10/31 01:31:42;;;;;;;;;;;11.00;99.90;;;;;;5175846;27;20464;-41
2023/10/31 01:34:08;;;;;;;;;;;11.00;99.90;;;;;;5176449;27;19923;-42
2023/10/31 01:36:33;;;;;;;;;;;10.90;99.90;;;;;;5176162;27;20293;-41
2023/10/31 01:38:59;;;;;;;;;;;10.90;99.90;;;;;;5176179;27;19930;-42
2023/10/31 01:41:24;;;;;;;;;;;10.90;99.90;;;;;;5176041;27;20026;-42
2023/10/31 01:43:50;;;;;;;;;;;10.90;99.90;;;;;;5176795;27;19937;-42
2023/10/31 01:46:15;;;;;;;;;;;10.90;99.90;;;;;;5179490;27;19952;-42
2023/10/31 01:48:41;;;;;;;;;;;10.90;99.90;;;;;;5180001;27;19929;-42
2023/10/31 01:51:07;;;;;;;;;;;10.80;99.90;;;;;;5179731;27;19954;-41
2023/10/31 01:53:33;;;;;;;;;;;10.90;99.90;;;;;;5179878;27;19937;-41
2023/10/31 01:56:01;;;;;;;;;;;10.90;99.90;;;;;;5179479;27;19926;-42
2023/10/31 01:58:34;;;;;;;;;;;10.80;99.90;;;;;;5160725;27;19931;-41
2023/10/31 02:01:00;;;;;;;;;;;10.80;99.90;;;;;;5179472;27;19926;-41
2023/10/31 02:03:29;;;;;;;;;;;10.80;99.90;;;;;;5179702;27;19946;-41
2023/10/31 02:05:55;;;;;;;;;;;10.80;99.90;;;;;;5179384;27;19946;-42
2023/10/31 02:08:20;;;;;;;;;;;10.80;99.90;;;;;;5179475;27;20296;-41
2023/10/31 02:10:46;;;;;;;;;;;10.80;99.90;;;;;;5160655;27;20335;-42
2023/10/31 02:13:15;;;;;;;;;;;10.80;99.90;;;;;;5179079;27;19964;-41
2023/10/31 02:15:40;;;;;;;;;;;10.80;99.90;;;;;;5179157;27;20017;-43
2023/10/31 02:18:07;;;;;;;;;;;10.80;99.90;;;;;;5160890;27;19989;-42
2023/10/31 02:20:32;;;;;;;;;;;10.80;99.90;;;;;;5179140;27;20424;-42
2023/10/31 02:22:58;;;;;;;;;;;10.80;99.90;;;;;;5179136;27;20021;-42
2023/10/31 02:25:23;;;;;;;;;;;10.80;99.90;;;;;;5178838;27;19923;-42
2023/10/31 02:27:49;;;;;;;;;;;10.70;99.90;;;;;;5178722;27;19967;-43
2023/10/31 02:30:15;;;;;;;;;;;10.70;99.90;;;;;;5179014;27;19930;-42
2023/10/31 02:32:41;;;;;;;;;;;10.70;99.90;;;;;;5178970;27;19923;-42
2023/10/31 02:35:06;;;;;;;;;;;10.70;99.90;;;;;;5179038;27;19929;-42
2023/10/31 02:37:32;;;;;;;;;;;10.70;99.90;;;;;;5178823;27;20392;-42
2023/10/31 02:39:59;;;;;;;;;;;10.70;99.90;;;;;;5160437;27;20423;-42
2023/10/31 02:42:25;;;;;;;;;;;10.70;99.90;;;;;;5178487;27;19922;-42
2023/10/31 02:44:50;;;;;;;;;;;10.70;99.90;;;;;;5160355;27;19955;-42
2023/10/31 02:47:16;;;;;;;;;;;10.60;99.90;;;;;;5178815;27;19923;-42
2023/10/31 02:49:41;;;;;;;;;;;10.60;99.90;;;;;;5178695;27;20362;-42
2023/10/31 02:52:07;;;;;;;;;;;10.70;99.90;;;;;;5178429;27;20282;-42
2023/10/31 02:54:33;;;;;;;;;;;10.70;99.90;;;;;;5178376;27;19930;-42
2023/10/31 02:56:58;;;;;;;;;;;10.60;99.90;;;;;;5158590;27;19932;-43
2023/10/31 02:59:24;;;;;;;;;;;10.60;99.90;;;;;;5178184;27;19927;-42
2023/10/31 03:01:50;;;;;;;;;;;10.60;99.90;;;;;;5160016;27;19947;-42
2023/10/31 03:04:15;;;;;;;;;;;10.60;99.90;;;;;;5178338;27;19929;-43
2023/10/31 03:06:41;;;;;;;;;;;10.60;99.90;;;;;;5178067;27;19926;-42
2023/10/31 03:09:07;;;;;;;;;;;10.50;99.90;;;;;;5178149;27;19922;-43
2023/10/31 03:11:32;;;;;;;;;;;10.60;99.90;;;;;;5178073;27;19923;-43
2023/10/31 03:13:58;;;;;;;;;;;10.60;99.90;;;;;;5178099;27;20022;-43
2023/10/31 03:16:24;;;;;;;;;;;10.50;99.90;;;;;;5159425;27;19971;-43
2023/10/31 03:18:50;;;;;;;;;;;10.60;99.90;;;;;;5177955;27;19923;-43
2023/10/31 03:21:16;;;;;;;;;;;10.60;99.90;;;;;;5177926;27;19929;-44
2023/10/31 03:23:43;;;;;;;;;;;10.60;99.90;;;;;;5177810;27;19922;-43
2023/10/31 03:26:08;;;;;;;;;;;10.60;99.90;;;;;;5177666;27;19927;-43
2023/10/31 03:28:34;;;;;;;;;;;10.60;99.90;;;;;;5177705;27;20380;-43
2023/10/31 03:30:59;;;;;;;;;;;10.60;99.90;;;;;;5159164;27;19923;-43
2023/10/31 03:33:25;;;;;;;;;;;10.60;99.90;;;;;;5177673;27;20021;-43
2023/10/31 03:35:51;;;;;;;;;;;10.60;99.90;;;;;;5159036;27;19923;-43
2023/10/31 03:38:16;;;;;;;;;;;10.60;99.90;;;;;;5177458;27;20262;-44
2023/10/31 03:40:42;;;;;;;;;;;10.60;99.90;;;;;;5158958;27;19952;-43
2023/10/31 03:43:07;;;;;;;;;;;10.60;99.90;;;;;;5158977;27;20507;-43
2023/10/31 03:45:33;;;;;;;;;;;10.60;99.90;;;;;;5177397;27;19922;-44
2023/10/31 03:47:59;;;;;;;;;;;10.60;99.90;;;;;;5177527;27;19934;-43
2023/10/31 03:50:24;;;;;;;;;;;10.60;99.90;;;;;;5177266;27;19962;-44
2023/10/31 03:52:50;;;;;;;;;;;10.60;99.90;;;;;;5177184;27;19930;-42
2023/10/31 03:55:15;;;;;;;;;;;10.60;99.90;;;;;;5177188;27;19930;-43
2023/10/31 03:57:41;;;;;;;;;;;10.60;99.90;;;;;;5177028;27;19923;-44
2023/10/31 04:00:08;;;;;;;;;;;10.60;99.90;;;;;;5158616;27;19922;-43
2023/10/31 04:02:33;;;;;;;;;;;10.60;99.90;;;;;;5177017;27;20289;-43
2023/10/31 04:04:59;;;;;;;;;;;10.60;99.90;;;;;;5177421;27;19944;-43
2023/10/31 04:07:24;;;;;;;;;;;10.60;99.90;;;;;;5176900;27;19974;-45
2023/10/31 04:09:50;;;;;;;;;;;10.60;99.90;;;;;;5176761;27;19975;-43
2023/10/31 04:12:16;;;;;;;;;;;10.60;99.90;;;;;;5176754;27;20026;-43
2023/10/31 04:14:42;;;;;;;;;;;10.70;99.90;;;;;;5177004;27;19923;-44
2023/10/31 04:17:07;;;;;;;;;;;10.60;99.90;;;;;;5176873;27;19937;-44
2023/10/31 04:19:33;;;;;;;;;;;10.70;99.90;;;;;;5176830;27;19977;-44
2023/10/31 04:21:58;;;;;;;;;;;10.60;99.90;;;;;;5176617;27;19981;-43
2023/10/31 04:24:24;;;;;;;;;;;10.70;99.90;;;;;;5158138;27;19923;-44
2023/10/31 04:26:49;;;;;;;;;;;10.70;99.90;;;;;;5176907;27;19923;-45
2023/10/31 04:29:15;;;;;;;;;;;10.70;99.90;;;;;;5176775;27;20317;-43
2023/10/31 04:31:40;;;;;;;;;;;10.70;99.90;;;;;;5176719;27;19946;-43
2023/10/31 04:34:06;;;;;;;;;;;10.70;99.90;;;;;;5176635;27;19922;-44
2023/10/31 04:36:31;;;;;;;;;;;10.70;99.90;;;;;;5176363;27;19922;-43
2023/10/31 04:38:57;;;;;;;;;;;10.70;99.90;;;;;;5176584;27;19923;-45
2023/10/31 04:41:23;;;;;;;;;;;10.70;99.90;;;;;;5176304;27;19967;-43
2023/10/31 04:43:48;;;;;;;;;;;10.70;99.90;;;;;;5176549;27;20017;-44
2023/10/31 04:46:14;;;;;;;;;;;10.70;99.90;;;;;;5176534;27;19944;-43
2023/10/31 04:48:39;;;;;;;;;;;10.70;99.90;;;;;;5176275;27;19927;-43
2023/10/31 04:51:05;;;;;;;;;;;10.70;99.90;;;;;;5176516;27;19979;-43
2023/10/31 04:53:32;;;;;;;;;;;10.70;99.90;;;;;;5176540;27;19922;-43
2023/10/31 04:55:58;;;;;;;;;;;10.70;99.90;;;;;;5157833;27;19981;-43
2023/10/31 04:58:24;;;;;;;;;;;10.70;99.90;;;;;;5176326;27;19974;-44
2023/10/31 05:00:49;;;;;;;;;;;10.70;99.90;;;;;;5158044;27;19923;-43
2023/10/31 05:03:15;;;;;;;;;;;10.70;99.90;;;;;;5176276;27;20330;-43
2023/10/31 05:05:40;;;;;;;;;;;10.70;99.90;;;;;;5176572;27;19930;-43
2023/10/31 05:08:06;;;;;;;;;;;10.70;99.90;;;;;;5176219;27;19923;-43
2023/10/31 05:10:31;;;;;;;;;;;10.70;99.90;;;;;;5176307;27;19952;-43
2023/10/31 05:12:57;;;;;;;;;;;10.70;99.90;;;;;;5157739;27;20365;-44
2023/10/31 05:15:22;;;;;;;;;;;10.70;99.90;;;;;;5176259;27;19922;-44
2023/10/31 05:17:48;;;;;;;;;;;10.70;99.90;;;;;;5176258;27;19979;-44
2023/10/31 05:20:13;;;;;;;;;;;10.60;99.90;;;;;;5160578;27;19923;-43
2023/10/31 05:22:40;;;;;;;;;;;10.70;99.90;;;;;;5179968;27;19990;-43
2023/10/31 05:25:06;;;;;;;;;;;10.70;99.90;;;;;;5180213;27;19929;-44
2023/10/31 05:27:32;;;;;;;;;;;10.70;99.90;;;;;;5180200;27;19922;-43
2023/10/31 05:29:57;;;;;;;;;;;10.70;99.90;;;;;;5161758;27;19923;-44
2023/10/31 05:32:23;;;;;;;;;;;10.60;99.90;;;;;;5179999;27;19930;-44
2023/10/31 05:34:48;;;;;;;;;;;10.60;99.90;;;;;;5179954;27;19934;-44
2023/10/31 05:37:14;;;;;;;;;;;10.70;99.90;;;;;;5179844;27;19922;-43
2023/10/31 05:39:39;;;;;;;;;;;10.70;99.90;;;;;;5161285;27;19922;-44
2023/10/31 05:42:05;;;;;;;;;;;10.70;99.90;;;;;;5179837;27;19987;-44
2023/10/31 05:44:30;;;;;;;;;;;10.70;99.90;;;;;;5179874;27;19967;-44
2023/10/31 05:46:56;;;;;;;;;;;10.70;99.90;;;;;;5179702;27;20275;-43
2023/10/31 05:49:21;;;;;;;;;;;10.70;99.90;;;;;;5179777;27;19922;-44
2023/10/31 05:51:53;;;;;;;;;;;10.70;99.90;;;;;;5179617;27;19930;-43
2023/10/31 05:54:19;;;;;;;;;;;10.70;99.90;;;;;;5179694;27;20013;-44
2023/10/31 05:56:44;;;;;;;;;;;10.70;99.90;;;;;;5179084;27;20349;-45
2023/10/31 05:59:13;;;;;;;;;;;10.70;99.90;;;;;;5179628;27;20412;-48
2023/10/31 06:01:38;;;;;;;;;;;10.70;99.90;;;;;;5179411;27;19927;-44
2023/10/31 06:04:04;;;;;;;;;;;10.70;99.90;;;;;;5179716;27;19946;-44
2023/10/31 06:06:32;;;;;;;;;;;10.70;99.90;;;;;;5160664;27;19923;-47
2023/10/31 06:08:58;;;;;;;;;;;10.70;99.90;;;;;;5179381;27;20434;-44
2023/10/31 06:11:23;;;;;;;;;;;10.70;99.90;;;;;;5179334;27;20034;-43
2023/10/31 06:13:49;;;;;;;;;;;10.70;99.90;;;;;;5179102;27;19973;-44
2023/10/31 06:16:14;;;;;;;;;;;10.70;99.90;;;;;;5179137;27;19923;-44
2023/10/31 06:18:40;;;;;;;;;;;10.70;99.90;;;;;;5179470;27;20369;-43
2023/10/31 06:21:06;;;;;;;;;;;10.70;99.90;;;;;;5178811;27;19948;-44
2023/10/31 06:23:31;;;;;;;;;;;10.60;99.90;;;;;;5178821;27;19951;-44
2023/10/31 06:25:58;;;;;;;;;;;10.70;99.90;;;;;;5179311;27;20285;-44
2023/10/31 06:28:23;;;;;;;;;;;10.70;99.90;;;;;;5178899;27;20003;-43
2023/10/31 06:30:49;;;;;;;;;;;10.70;99.90;;;;;;5178782;27;20383;-43
2023/10/31 06:33:14;;;;;;;;;;;10.70;99.90;;;;;;5160532;27;19923;-44
2023/10/31 06:35:40;;;;;;;;;;;10.60;99.90;;;;;;5178594;27;19975;-45
2023/10/31 06:38:06;;;;;;;;;;;10.70;99.90;;;;;;5178849;27;19923;-44
2023/10/31 06:40:31;;;;;;;;;;;10.70;99.90;;;;;;5178472;27;19923;-44
2023/10/31 06:42:57;;;;;;;;;;;10.70;99.90;;;;;;5178692;27;20022;-44
2023/10/31 06:45:22;;;;;;;;;;;10.70;99.90;;;;;;5178585;27;19970;-44
2023/10/31 06:47:48;;;;;;;;;;;10.70;99.90;;;;;;5178357;27;19926;-43
2023/10/31 06:50:14;;;;;;;;;;;10.70;99.90;;;;;;5142789;27;19930;-47
2023/10/31 06:52:39;;;;;;;;;;;10.70;99.90;;;;;;5178398;27;19930;-44
2023/10/31 06:55:05;;;;;;;;;;;10.70;99.90;;;;;;5178400;27;19987;-44
2023/10/31 06:57:30;;;;;;;;;;;10.70;99.90;;;;;;5178052;27;19945;-44
2023/10/31 06:59:56;;;;;;;;;;;10.70;99.90;;;;;;5159666;27;20009;-44
2023/10/31 07:02:21;;;;;;;;;;;10.70;99.90;;;;;;5178350;27;20013;-44
2023/10/31 07:04:47;;;;;;;;;;;10.70;99.90;;;;;;5178274;27;19923;-44
2023/10/31 07:07:12;;;;;;;;;;;10.70;99.90;;;;;;5178108;27;19923;-44
2023/10/31 07:09:38;;;;;;;;;;;10.80;99.90;;;;;;5178024;27;19927;-44
2023/10/31 07:12:04;;;;;;;;;;;10.70;99.90;;;;;;5159744;27;20010;-44
2023/10/31 07:14:29;;;;;;;;;;;10.80;99.90;;;;;;5178113;27;19923;-44
2023/10/31 07:16:56;;;;;;;;;;;10.70;99.90;;;;;;5177862;27;19922;-44
2023/10/31 07:19:21;;;;;;;;;;;10.80;99.90;;;;;;5177890;27;19923;-44
2023/10/31 07:21:47;;;;;;;;;;;10.80;99.90;;;;;;5177761;27;20270;-44
2023/10/31 07:24:12;;;;;;;;;;;10.80;99.90;;;;;;5159017;27;19974;-45
2023/10/31 07:26:38;;;;;;;;;;;10.80;99.90;;;;;;5177776;27;19923;-44
2023/10/31 07:29:03;;;;;;;;;;;10.80;99.90;;;;;;5177793;27;19967;-44
2023/10/31 07:31:29;;;;;;;;;;;10.80;99.90;;;;;;5177567;27;19929;-44
2023/10/31 07:33:56;;;;;;;;;;;10.80;99.90;;;;;;5177653;27;20021;-45
2023/10/31 07:36:21;;;;;;;;;;;10.80;99.90;;;;;;5158871;27;19971;-45
2023/10/31 07:38:47;;;;;;;;;;;10.80;99.90;;;;;;5158920;27;19923;-45
2023/10/31 07:41:13;;;;;;;;;;;10.80;99.90;;;;;;5177225;27;19922;-45
2023/10/31 07:43:38;;;;;;;;;;;10.90;99.90;;;;;;5177327;27;19934;-45
2023/10/31 07:46:04;;;;;;;;;;;10.90;99.90;;;;;;5177389;27;19923;-45
2023/10/31 07:48:30;;;;;;;;;;;10.80;99.90;;;;;;5177519;27;19974;-45
2023/10/31 07:50:55;;;;;;;;;;;10.80;99.90;;;;;;5177143;27;19923;-45
2023/10/31 07:53:21;;;;;;;;;;;10.90;99.90;;;;;;5177221;27;19945;-45
2023/10/31 07:55:47;;;;;;;;;;;10.90;99.90;;;;;;5177228;27;19952;-45
2023/10/31 07:58:12;;;;;;;;;;;10.90;99.90;;;;;;5177239;27;19995;-43
2023/10/31 08:00:39;;;;;;;;;;;10.90;99.90;;;;;;5177191;27;20424;-44
2023/10/31 08:03:04;;;;;;;;;;;10.90;99.90;;;;;;5177172;27;19927;-45
2023/10/31 08:05:30;;;;;;;;;;;10.90;99.90;;;;;;5176957;27;20010;-44
2023/10/31 08:07:55;;;;;;;;;;;11.00;99.90;;;;;;5176865;27;20351;-44
2023/10/31 08:10:21;;;;;;;;;;;11.00;99.90;;;;;;5176979;27;19975;-44
2023/10/31 08:12:47;;;;;;;;;;;11.00;99.90;;;;;;5176954;27;19929;-45
2023/10/31 08:15:13;;;;;;;;;;;11.00;99.90;;;;;;5158485;27;19987;-44
2023/10/31 08:17:39;;;;;;;;;;;11.00;99.90;;;;;;5176784;27;19933;-44
2023/10/31 08:20:05;;;;;;;;;;;11.00;99.90;;;;;;5176734;27;19923;-45
2023/10/31 08:22:30;;;;;;;;;;;11.10;99.90;;;;;;5176616;27;19967;-44
2023/10/31 08:24:56;;;;;;;;;;;11.10;99.90;;;;;;5177054;27;19922;-45
2023/10/31 08:27:21;;;;;;;;;;;11.10;99.90;;;;;;5158176;27;20326;-44
2023/10/31 08:29:47;;;;;;;;;;;11.20;99.90;;;;;;5176536;27;20003;-44
2023/10/31 08:32:13;;;;;;;;;;;11.20;99.90;;;;;;5176690;27;19923;-44
2023/10/31 08:34:38;;;;;;;;;;;11.20;99.90;;;;;;5176667;27;19971;-44
2023/10/31 08:37:04;;;;;;;;;;;11.20;99.90;;;;;;5176299;27;20017;-45
2023/10/31 08:39:30;;;;;;;;;;;11.30;99.90;;;;;;5176845;27;19930;-44
2023/10/31 08:41:57;;;;;;;;;;;11.40;99.90;;;;;;5176632;27;19923;-44
2023/10/31 08:44:22;;;;;;;;;;;11.40;99.90;;;;;;5176640;27;19929;-44
2023/10/31 08:46:48;;;;;;;;;;;11.40;99.90;;;;;;5176438;27;20013;-44
2023/10/31 08:49:16;;;;;;;;;;;11.50;99.90;;;;;;5176513;27;19930;-44
2023/10/31 08:51:42;;;;;;;;;;;11.50;99.90;;;;;;5158099;27;19923;-43
2023/10/31 08:54:08;;;;;;;;;;;11.60;99.90;;;;;;5178507;27;19923;-44
2023/10/31 08:56:34;;;;;;;;;;;11.60;99.90;;;;;;5180646;27;20025;-44
2023/10/31 08:59:00;;;;;;;;;;;11.60;99.90;;;;;;5180935;27;19977;-43
2023/10/31 09:01:26;;;;;;;;;;;11.70;99.90;;;;;;5180623;27;20356;-43
2023/10/31 09:03:52;;;;;;;;;;;11.60;99.90;;;;;;5180665;27;20025;-44
2023/10/31 09:06:18;;;;;;;;;;;11.50;99.90;;;;;;5180454;27;19927;-44
2023/10/31 09:08:43;;;;;;;;;;;11.40;99.90;;;;;;5180457;27;20022;-43
2023/10/31 09:11:09;;;;;;;;;;;11.30;99.90;;;;;;5180534;27;19923;-43
2023/10/31 09:13:34;;;;;;;;;;;11.30;99.90;;;;;;5180452;27;19923;-43
2023/10/31 09:16:00;;;;;;;;;;;11.20;99.90;;;;;;5180328;27;20013;-43
2023/10/31 09:18:25;;;;;;;;;;;11.20;99.90;;;;;;5180336;27;20281;-44
2023/10/31 09:20:51;;;;;;;;;;;11.20;99.90;;;;;;5161644;27;20060;-43
2023/10/31 09:23:17;;;;;;;;;;;11.20;99.90;;;;;;5180259;27;19923;-44
2023/10/31 09:25:45;;;;;;;;;;;11.10;99.90;;;;;;5180138;27;19922;-45
2023/10/31 09:28:11;;;;;;;;;;;11.10;99.90;;;;;;5161830;27;19922;-44
2023/10/31 09:30:37;;;;;;;;;;;11.10;99.90;;;;;;5179940;27;19930;-44
2023/10/31 09:33:02;;;;;;;;;;;11.00;99.90;;;;;;5179916;27;20251;-45
2023/10/31 09:35:28;;;;;;;;;;;11.00;99.90;;;;;;5161422;27;19927;-43
2023/10/31 09:37:54;;;;;;;;;;;11.00;99.90;;;;;;5179972;27;20030;-43
2023/10/31 09:40:20;;;;;;;;;;;11.00;99.90;;;;;;5179856;27;19922;-43
2023/10/31 09:42:46;;;;;;;;;;;11.00;99.90;;;;;;5161436;27;19933;-43
2023/10/31 09:45:12;;;;;;;;;;;10.90;99.90;;;;;;5179732;27;20322;-44
2023/10/31 09:47:38;;;;;;;;;;;10.90;99.90;;;;;;5143902;27;19923;-43
2023/10/31 09:50:04;;;;;;;;;;;11.00;99.90;;;;;;5179562;27;19930;-44
2023/10/31 09:52:30;;;;;;;;;;;11.00;99.90;;;;;;5179739;27;20380;-43
2023/10/31 09:54:56;;;;;;;;;;;11.00;99.90;;;;;;5179718;27;19922;-43
2023/10/31 09:57:22;;;;;;;;;;;11.00;99.90;;;;;;5178907;27;20032;-44
2023/10/31 09:59:47;;;;;;;;;;;11.00;99.90;;;;;;5159506;27;19980;-43
2023/10/31 10:02:13;;;;;;;;;;;11.10;99.90;;;;;;5178200;27;19985;-43
2023/10/31 10:04:38;;;;;;;;;;;11.10;99.90;;;;;;5177634;27;19927;-44
2023/10/31 10:07:05;;;;;;;;;;;11.10;99.90;;;;;;5178279;27;20405;-44
2023/10/31 10:09:31;;;;;;;;;;;11.20;99.90;;;;;;5178129;27;19922;-43
2023/10/31 10:11:59;;;;;;;;;;;11.20;99.90;;;;;;5178026;27;20013;-44
2023/10/31 10:14:24;;;;;;;;;;;11.20;99.90;;;;;;5178121;27;19927;-44
2023/10/31 10:16:50;;;;;;;;;;;11.30;99.90;;;;;;5178013;27;20025;-44
2023/10/31 10:19:20;;;;;;;;;;;11.30;99.90;;;;;;5177858;27;19975;-44
2023/10/31 10:21:47;;;;;;;;;;;11.30;99.90;;;;;;5178080;27;19930;-41
2023/10/31 10:24:12;;;;;;;;;;;11.30;99.90;;;;;;5177910;27;19969;-41
2023/10/31 10:26:38;;;;;;;;;;;11.40;99.90;;;;;;5177721;27;19942;-41
2023/10/31 10:29:03;;;;;;;;;;;11.40;99.90;;;;;;5159461;27;19923;-41
2023/10/31 10:31:29;;;;;;;;;;;11.50;99.90;;;;;;5177745;27;19922;-42
2023/10/31 10:33:55;;;;;;;;;;;11.50;99.90;;;;;;5177636;27;19922;-42
2023/10/31 10:36:21;;;;;;;;;;;11.60;99.90;;;;;;5177389;27;19922;-42
2023/10/31 10:38:46;;;;;;;;;;;11.60;99.90;;;;;;5178007;27;19923;-41
2023/10/31 10:41:13;;;;;;;;;;;11.60;99.90;;;;;;5177571;27;19929;-41
2023/10/31 10:43:40;;;;;;;;;;;11.60;99.90;;;;;;5159333;27;19965;-41
2023/10/31 10:46:08;;;;;;;;;;;11.70;99.90;;;;;;5177380;27;19930;-42
2023/10/31 10:48:35;;;;;;;;;;;11.70;99.90;;;;;;5177254;27;19937;-41
2023/10/31 10:51:15;;;;;;;;;;;11.70;99.90;;;;;;5177552;27;19927;-42
2023/10/31 10:53:44;;;;;;;;;;;11.80;99.90;;;;;;5177578;27;19923;-42
2023/10/31 10:56:16;;;;;;;;;;;11.90;99.90;;;;;;5158735;27;19923;-42
2023/10/31 10:58:52;;;;;;;;;;;11.90;99.90;;;;;;5113477;27;1789757;-42
2023/10/31 11:01:18;;;;;;;;;;;11.90;99.90;;;;;;5178259;27;19934;-42
2023/10/31 11:03:44;;;;;;;;;;;11.90;99.90;;;;;;5178235;27;19990;-41
2023/10/31 11:06:10;;;;;;;;;;;11.90;99.90;;;;;;5178301;27;19923;-41
2023/10/31 11:08:36;;;;;;;;;;;11.90;99.90;;;;;;5178242;27;19929;-42
2023/10/31 11:11:02;;;;;;;;;;;12.00;99.90;;;;;;5177972;27;19922;-41
2023/10/31 11:13:28;;;;;;;;;;;12.00;99.90;;;;;;5178032;27;20345;-43
2023/10/31 11:15:57;;;;;;;;;;;12.00;99.90;;;;;;5177536;27;20387;-42
2023/10/31 11:18:23;;;;;;;;;;;12.00;99.90;;;;;;5158807;27;20387;-42
2023/10/31 11:20:49;;;;;;;;;;;12.00;99.90;;;;;;5177985;27;19977;-41
2023/10/31 11:23:14;;;;;;;;;;;12.00;99.90;;;;;;5177828;27;19923;-42
2023/10/31 11:25:43;;;;;;;;;;;12.00;99.90;;;;;;5177868;27;19923;-42
2023/10/31 11:28:13;;;;;;;;;;;12.10;99.90;;;;;;5177700;27;19975;-42
2023/10/31 11:30:39;;;;;;;;;;;12.00;99.90;;;;;;5177786;27;19922;-41
2023/10/31 11:33:05;;;;;;;;;;;12.10;99.90;;;;;;5177699;27;19929;-42
2023/10/31 11:35:33;;;;;;;;;;;12.10;99.90;;;;;;5177621;27;20014;-44
2023/10/31 11:38:08;;;;;;;;;;;12.10;99.90;;;;;;5177623;27;19933;-45
2023/10/31 11:40:34;;;;;;;;;;;12.10;99.90;;;;;;5177573;27;19944;-45
2023/10/31 11:43:03;;;;;;;;;;;12.00;99.90;;;;;;5177891;27;19926;-45
2023/10/31 11:45:43;;;;;;;;;;;12.00;99.90;;;;;;5177508;27;19971;-45
2023/10/31 11:48:09;;;;;;;;;;;12.00;99.90;;;;;;5177352;27;19933;-45
2023/10/31 11:50:35;;;;;;;;;;;11.90;99.90;;;;;;5177215;27;20005;-45
2023/10/31 11:53:05;;;;;;;;;;;11.90;99.90;;;;;;5177417;27;19976;-45
2023/10/31 11:55:33;;;;;;;;;;;11.90;99.90;;;;;;5176947;27;19971;-45
2023/10/31 11:57:59;;;;;;;;;;;11.80;99.90;;;;;;5177598;27;19926;-46
2023/10/31 12:00:24;;;;;;;;;;;11.80;99.90;;;;;;5177210;27;19922;-45
2023/10/31 12:03:00;;;;;;;;;;;11.70;99.90;;;;;;5176986;27;20373;-45
2023/10/31 12:05:26;;;;;;;;;;;11.70;99.90;;;;;;5177170;27;19922;-44
2023/10/31 12:07:51;;;;;;;;;;;11.70;99.90;;;;;;5176888;27;19923;-45
2023/10/31 12:10:29;;;;;;;;;;;11.70;99.90;;;;;;5177156;27;20305;-46
2023/10/31 12:12:55;;;;;;;;;;;11.70;99.90;;;;;;5158741;27;20388;-45
2023/10/31 12:15:21;;;;;;;;;;;11.70;99.90;;;;;;5177029;27;19922;-45
2023/10/31 12:17:46;;;;;;;;;;;11.70;99.90;;;;;;5176847;27;19923;-45
2023/10/31 12:20:12;;;;;;;;;;;11.70;99.90;;;;;;5176891;27;19938;-45
2023/10/31 12:22:39;;;;;;;;;;;11.70;99.90;;;;;;5176781;27;19923;-45
2023/10/31 12:25:05;;;;;;;;;;;11.70;99.90;;;;;;5176811;27;19967;-45
2023/10/31 12:27:44;;;;;;;;;;;11.70;99.90;;;;;;5158260;27;19923;-45
2023/10/31 12:30:10;;;;;;;;;;;11.60;99.90;;;;;;5158253;27;19922;-45
2023/10/31 12:32:36;;;;;;;;;;;11.60;99.90;;;;;;5176639;27;19929;-45
2023/10/31 12:35:02;;;;;;;;;;;11.60;99.90;;;;;;5176668;27;20013;-45
2023/10/31 12:37:27;;;;;;;;;;;11.60;99.90;;;;;;5176756;27;19930;-45
2023/10/31 12:39:53;;;;;;;;;;;11.50;99.90;;;;;;5176643;27;19923;-45
2023/10/31 12:42:20;;;;;;;;;;;11.50;99.90;;;;;;5176683;27;20025;-45
2023/10/31 12:44:46;;;;;;;;;;;11.50;99.90;;;;;;5176653;27;20357;-45
2023/10/31 12:47:20;;;;;;;;;;;11.50;99.90;;;;;;5176534;27;19967;-46
2023/10/31 12:49:46;;;;;;;;;;;11.40;99.90;;;;;;5176274;27;19926;-45
2023/10/31 12:52:11;;;;;;;;;;;11.30;99.90;;;;;;5176520;27;19923;-45
2023/10/31 12:54:37;;;;;;;;;;;11.40;99.90;;;;;;5176349;27;19968;-45
2023/10/31 12:57:04;;;;;;;;;;;11.30;99.90;;;;;;5176060;27;19922;-45
2023/10/31 12:59:30;;;;;;;;;;;11.30;99.90;;;;;;5176680;27;19923;-45
2023/10/31 13:01:56;;;;;;;;;;;11.30;99.90;;;;;;5176198;27;19929;-45
2023/10/31 13:04:26;;;;;;;;;;;11.30;99.90;;;;;;5176271;27;20393;-45
2023/10/31 13:06:56;;;;;;;;;;;11.30;99.90;;;;;;5176379;27;19923;-45
2023/10/31 13:09:21;;;;;;;;;;;11.20;99.90;;;;;;5176068;27;19922;-45
2023/10/31 13:11:47;;;;;;;;;;;11.20;99.90;;;;;;5176246;27;19929;-45
2023/10/31 13:14:13;;;;;;;;;;;11.20;99.90;;;;;;5176160;27;19930;-45
2023/10/31 13:16:39;;;;;;;;;;;11.20;99.90;;;;;;5176117;27;19927;-45
2023/10/31 13:19:04;;;;;;;;;;;11.20;99.90;;;;;;5175946;27;20389;-45
2023/10/31 13:21:30;;;;;;;;;;;11.20;99.90;;;;;;5176446;27;20018;-45
2023/10/31 13:23:55;;;;;;;;;;;11.20;99.90;;;;;;5176053;27;19923;-45
2023/10/31 13:26:21;;;;;;;;;;;11.20;99.90;;;;;;5176158;27;19929;-45
2023/10/31 13:28:46;;;;;;;;;;;11.20;99.90;;;;;;5157993;27;19922;-44
2023/10/31 13:31:14;;;;;;;;;;;11.10;99.90;;;;;;5157474;27;19974;-45
2023/10/31 13:33:39;;;;;;;;;;;11.20;99.90;;;;;;5176078;27;20340;-45
2023/10/31 13:36:05;;;;;;;;;;;11.10;99.90;;;;;;5176084;27;20021;-45
2023/10/31 13:38:31;;;;;;;;;;;11.20;99.90;;;;;;5176072;27;19931;-45
2023/10/31 13:40:56;;;;;;;;;;;11.10;99.90;;;;;;5178516;27;19922;-45
2023/10/31 13:43:22;;;;;;;;;;;11.10;99.90;;;;;;5179728;27;19922;-45
2023/10/31 13:45:47;;;;;;;;;;;11.10;99.90;;;;;;5179733;27;19922;-47
2023/10/31 13:48:14;;;;;;;;;;;11.10;99.90;;;;;;5179566;27;20345;-45
2023/10/31 13:50:41;;;;;;;;;;;11.10;99.90;;;;;;5180043;27;19922;-45
2023/10/31 13:53:07;;;;;;;;;;;11.10;99.90;;;;;;5179709;27;19930;-44
2023/10/31 13:55:33;;;;;;;;;;;11.10;99.90;;;;;;5179497;27;20021;-46
2023/10/31 13:57:58;;;;;;;;;;;11.10;99.90;;;;;;5179361;27;20013;-44
2023/10/31 14:00:24;;;;;;;;;;;11.00;99.90;;;;;;5179486;27;20362;-47
2023/10/31 14:02:50;;;;;;;;;;;11.10;99.90;;;;;;5179420;27;20331;-44
2023/10/31 14:05:16;;;;;;;;;;;11.00;99.90;;;;;;5179404;27;20263;-45
2023/10/31 14:07:41;;;;;;;;;;;11.00;99.90;;;;;;5179145;27;20374;-44
2023/10/31 14:10:07;;;;;;;;;;;11.00;99.90;;;;;;5179510;27;19929;-45